sensor_id;sensor_type;location;lat;lon;timestamp;P1;durP1;ratioP1;P2;durP2;ratioP2
8046;SDS011;74083;42.516;23.358;2023-12-14T00:01:19;3.60;;;1.80;;
8046;SDS011;74083;42.516;23.358;2023-12-14T00:04:05;3.13;;;1.93;;
8046;SDS011;74083;42.516;23.358;2023-12-14T00:06:51;4.33;;;1.70;;
8046;SDS011;74083;42.516;23.358;2023-12-14T00:09:36;1.80;;;1.70;;
8046;SDS011;74083;42.516;23.358;2023-12-14T00:12:22;3.13;;;1.90;;
8046;SDS011;74083;42.516;23.358;2023-12-14T00:15:09;5.87;;;1.77;;
8046;SDS011;74083;42.516;23.358;2023-12-14T00:17:55;1.77;;;1.63;;
8046;SDS011;74083;42.516;23.358;2023-12-14T00:20:41;1.93;;;1.77;;
8046;SDS011;74083;42.516;23.358;2023-12-14T00:23:27;3.70;;;1.80;;
8046;SDS011;74083;42.516;23.358;2023-12-14T00:26:12;2.20;;;1.90;;
8046;SDS011;74083;42.516;23.358;2023-12-14T00:28:58;3.83;;;1.93;;
8046;SDS011;74083;42.516;23.358;2023-12-14T00:31:45;1.57;;;1.47;;
8046;SDS011;74083;42.516;23.358;2023-12-14T00:34:30;2.23;;;1.53;;
8046;SDS011;74083;42.516;23.358;2023-12-14T00:37:16;2.20;;;1.60;;
8046;SDS011;74083;42.516;23.358;2023-12-14T00:40:01;2.67;;;1.80;;
8046;SDS011;74083;42.516;23.358;2023-12-14T00:42:47;2.17;;;1.70;;
8046;SDS011;74083;42.516;23.358;2023-12-14T00:45:33;4.87;;;2.00;;
8046;SDS011;74083;42.516;23.358;2023-12-14T00:48:20;2.17;;;1.83;;
8046;SDS011;74083;42.516;23.358;2023-12-14T00:51:06;2.40;;;1.60;;
8046;SDS011;74083;42.516;23.358;2023-12-14T00:53:52;4.60;;;2.10;;
8046;SDS011;74083;42.516;23.358;2023-12-14T00:56:37;1.97;;;1.80;;
8046;SDS011;74083;42.516;23.358;2023-12-14T00:59:23;1.90;;;1.60;;
8046;SDS011;74083;42.516;23.358;2023-12-14T01:02:08;2.10;;;1.90;;
8046;SDS011;74083;42.516;23.358;2023-12-14T01:04:55;2.33;;;1.90;;
8046;SDS011;74083;42.516;23.358;2023-12-14T01:07:41;3.20;;;1.70;;
8046;SDS011;74083;42.516;23.358;2023-12-14T01:10:26;3.13;;;1.60;;
8046;SDS011;74083;42.516;23.358;2023-12-14T01:13:12;1.80;;;1.70;;
8046;SDS011;74083;42.516;23.358;2023-12-14T01:15:58;4.33;;;1.80;;
8046;SDS011;74083;42.516;23.358;2023-12-14T01:18:43;1.70;;;1.60;;
8046;SDS011;74083;42.516;23.358;2023-12-14T01:21:30;2.10;;;1.70;;
8046;SDS011;74083;42.516;23.358;2023-12-14T01:24:16;2.03;;;1.50;;
8046;SDS011;74083;42.516;23.358;2023-12-14T01:27:01;1.90;;;1.70;;
8046;SDS011;74083;42.516;23.358;2023-12-14T01:29:47;2.60;;;1.53;;
8046;SDS011;74083;42.516;23.358;2023-12-14T01:32:33;2.47;;;1.60;;
8046;SDS011;74083;42.516;23.358;2023-12-14T01:35:18;1.50;;;1.40;;
8046;SDS011;74083;42.516;23.358;2023-12-14T01:38:05;2.00;;;1.50;;
8046;SDS011;74083;42.516;23.358;2023-12-14T01:40:50;1.70;;;1.60;;
8046;SDS011;74083;42.516;23.358;2023-12-14T01:43:36;2.23;;;1.50;;
8046;SDS011;74083;42.516;23.358;2023-12-14T01:46:22;1.90;;;1.60;;
8046;SDS011;74083;42.516;23.358;2023-12-14T01:49:08;4.97;;;2.73;;
8046;SDS011;74083;42.516;23.358;2023-12-14T01:51:53;1.73;;;1.63;;
8046;SDS011;74083;42.516;23.358;2023-12-14T01:54:40;2.77;;;1.70;;
8046;SDS011;74083;42.516;23.358;2023-12-14T01:57:25;1.87;;;1.77;;
8046;SDS011;74083;42.516;23.358;2023-12-14T02:00:13;1.80;;;1.70;;
8046;SDS011;74083;42.516;23.358;2023-12-14T02:03:06;1.80;;;1.70;;
8046;SDS011;74083;42.516;23.358;2023-12-14T02:05:52;1.70;;;1.60;;
8046;SDS011;74083;42.516;23.358;2023-12-14T02:08:38;2.00;;;1.60;;
8046;SDS011;74083;42.516;23.358;2023-12-14T02:11:25;1.67;;;1.57;;
8046;SDS011;74083;42.516;23.358;2023-12-14T02:14:11;3.20;;;2.17;;
8046;SDS011;74083;42.516;23.358;2023-12-14T02:16:57;2.43;;;1.60;;
8046;SDS011;74083;42.516;23.358;2023-12-14T02:19:43;1.80;;;1.60;;
8046;SDS011;74083;42.516;23.358;2023-12-14T02:22:34;1.67;;;1.57;;
8046;SDS011;74083;42.516;23.358;2023-12-14T02:25:21;1.70;;;1.60;;
8046;SDS011;74083;42.516;23.358;2023-12-14T02:28:07;1.73;;;1.60;;
8046;SDS011;74083;42.516;23.358;2023-12-14T02:30:53;1.97;;;1.70;;
8046;SDS011;74083;42.516;23.358;2023-12-14T02:33:38;3.17;;;1.50;;
8046;SDS011;74083;42.516;23.358;2023-12-14T02:36:24;1.73;;;1.63;;
8046;SDS011;74083;42.516;23.358;2023-12-14T02:39:11;1.73;;;1.63;;
8046;SDS011;74083;42.516;23.358;2023-12-14T02:41:57;4.90;;;2.10;;
8046;SDS011;74083;42.516;23.358;2023-12-14T02:44:42;3.23;;;1.70;;
8046;SDS011;74083;42.516;23.358;2023-12-14T02:47:28;1.60;;;1.50;;
8046;SDS011;74083;42.516;23.358;2023-12-14T02:50:13;2.00;;;1.60;;
8046;SDS011;74083;42.516;23.358;2023-12-14T02:52:59;2.00;;;1.70;;
8046;SDS011;74083;42.516;23.358;2023-12-14T02:55:46;1.87;;;1.67;;
8046;SDS011;74083;42.516;23.358;2023-12-14T02:58:31;2.13;;;1.60;;
8046;SDS011;74083;42.516;23.358;2023-12-14T03:01:18;2.30;;;1.70;;
8046;SDS011;74083;42.516;23.358;2023-12-14T03:04:04;1.47;;;1.40;;
8046;SDS011;74083;42.516;23.358;2023-12-14T03:06:51;2.27;;;1.80;;
8046;SDS011;74083;42.516;23.358;2023-12-14T03:09:39;1.83;;;1.70;;
8046;SDS011;74083;42.516;23.358;2023-12-14T03:12:29;1.90;;;1.80;;
8046;SDS011;74083;42.516;23.358;2023-12-14T03:15:16;1.50;;;1.40;;
8046;SDS011;74083;42.516;23.358;2023-12-14T03:18:03;2.40;;;1.70;;
8046;SDS011;74083;42.516;23.358;2023-12-14T03:20:49;1.70;;;1.60;;
8046;SDS011;74083;42.516;23.358;2023-12-14T03:23:35;1.70;;;1.60;;
8046;SDS011;74083;42.516;23.358;2023-12-14T03:26:21;1.80;;;1.70;;
8046;SDS011;74083;42.516;23.358;2023-12-14T03:29:08;1.70;;;1.60;;
8046;SDS011;74083;42.516;23.358;2023-12-14T03:31:54;1.87;;;1.50;;
8046;SDS011;74083;42.516;23.358;2023-12-14T03:34:39;1.80;;;1.70;;
8046;SDS011;74083;42.516;23.358;2023-12-14T03:37:24;1.73;;;1.63;;
8046;SDS011;74083;42.516;23.358;2023-12-14T03:40:10;4.77;;;1.70;;
8046;SDS011;74083;42.516;23.358;2023-12-14T03:42:55;1.70;;;1.60;;
8046;SDS011;74083;42.516;23.358;2023-12-14T03:45:42;1.70;;;1.60;;
8046;SDS011;74083;42.516;23.358;2023-12-14T03:48:28;1.83;;;1.73;;
8046;SDS011;74083;42.516;23.358;2023-12-14T03:51:14;1.80;;;1.67;;
8046;SDS011;74083;42.516;23.358;2023-12-14T03:54:03;1.80;;;1.70;;
8046;SDS011;74083;42.516;23.358;2023-12-14T03:56:49;1.70;;;1.60;;
8046;SDS011;74083;42.516;23.358;2023-12-14T03:59:38;11.43;;;2.23;;
8046;SDS011;74083;42.516;23.358;2023-12-14T04:02:26;3.03;;;1.60;;
8046;SDS011;74083;42.516;23.358;2023-12-14T04:05:11;7.00;;;2.03;;
8046;SDS011;74083;42.516;23.358;2023-12-14T04:07:57;1.73;;;1.63;;
8046;SDS011;74083;42.516;23.358;2023-12-14T04:10:42;2.07;;;1.60;;
8046;SDS011;74083;42.516;23.358;2023-12-14T04:13:28;1.57;;;1.47;;
8046;SDS011;74083;42.516;23.358;2023-12-14T04:16:13;2.83;;;1.63;;
8046;SDS011;74083;42.516;23.358;2023-12-14T04:19:00;1.83;;;1.70;;
8046;SDS011;74083;42.516;23.358;2023-12-14T04:21:46;1.70;;;1.60;;
8046;SDS011;74083;42.516;23.358;2023-12-14T04:24:32;2.37;;;1.70;;
8046;SDS011;74083;42.516;23.358;2023-12-14T04:27:17;1.70;;;1.60;;
8046;SDS011;74083;42.516;23.358;2023-12-14T04:30:03;2.23;;;1.67;;
8046;SDS011;74083;42.516;23.358;2023-12-14T04:32:54;2.83;;;1.60;;
8046;SDS011;74083;42.516;23.358;2023-12-14T04:35:40;1.90;;;1.70;;
8046;SDS011;74083;42.516;23.358;2023-12-14T04:38:26;2.10;;;1.80;;
8046;SDS011;74083;42.516;23.358;2023-12-14T04:41:12;1.50;;;1.40;;
8046;SDS011;74083;42.516;23.358;2023-12-14T04:43:58;3.93;;;1.50;;
8046;SDS011;74083;42.516;23.358;2023-12-14T04:46:43;1.87;;;1.60;;
8046;SDS011;74083;42.516;23.358;2023-12-14T04:49:29;2.13;;;1.70;;
8046;SDS011;74083;42.516;23.358;2023-12-14T04:52:16;1.90;;;1.57;;
8046;SDS011;74083;42.516;23.358;2023-12-14T04:55:02;1.70;;;1.60;;
8046;SDS011;74083;42.516;23.358;2023-12-14T04:57:48;3.00;;;1.60;;
8046;SDS011;74083;42.516;23.358;2023-12-14T05:00:33;3.63;;;1.70;;
8046;SDS011;74083;42.516;23.358;2023-12-14T05:03:18;1.83;;;1.63;;
8046;SDS011;74083;42.516;23.358;2023-12-14T05:06:04;2.77;;;1.70;;
8046;SDS011;74083;42.516;23.358;2023-12-14T05:08:52;1.60;;;1.50;;
8046;SDS011;74083;42.516;23.358;2023-12-14T05:11:39;1.67;;;1.40;;
8046;SDS011;74083;42.516;23.358;2023-12-14T05:14:24;1.60;;;1.50;;
8046;SDS011;74083;42.516;23.358;2023-12-14T05:17:12;1.70;;;1.60;;
8046;SDS011;74083;42.516;23.358;2023-12-14T05:19:58;1.70;;;1.60;;
8046;SDS011;74083;42.516;23.358;2023-12-14T05:22:45;1.87;;;1.60;;
8046;SDS011;74083;42.516;23.358;2023-12-14T05:25:32;1.60;;;1.50;;
8046;SDS011;74083;42.516;23.358;2023-12-14T05:28:18;1.83;;;1.60;;
8046;SDS011;74083;42.516;23.358;2023-12-14T05:31:03;2.40;;;1.40;;
8046;SDS011;74083;42.516;23.358;2023-12-14T05:33:49;1.83;;;1.60;;
8046;SDS011;74083;42.516;23.358;2023-12-14T05:36:34;1.97;;;1.50;;
8046;SDS011;74083;42.516;23.358;2023-12-14T05:39:20;1.63;;;1.53;;
8046;SDS011;74083;42.516;23.358;2023-12-14T05:42:07;1.70;;;1.60;;
8046;SDS011;74083;42.516;23.358;2023-12-14T05:44:53;1.50;;;1.40;;
8046;SDS011;74083;42.516;23.358;2023-12-14T05:47:39;4.40;;;1.57;;
8046;SDS011;74083;42.516;23.358;2023-12-14T05:50:25;2.07;;;1.50;;
8046;SDS011;74083;42.516;23.358;2023-12-14T05:53:11;2.07;;;1.90;;
8046;SDS011;74083;42.516;23.358;2023-12-14T05:55:56;2.50;;;1.57;;
8046;SDS011;74083;42.516;23.358;2023-12-14T05:58:44;3.13;;;1.50;;
8046;SDS011;74083;42.516;23.358;2023-12-14T06:01:30;2.00;;;1.50;;
8046;SDS011;74083;42.516;23.358;2023-12-14T06:04:15;3.57;;;1.83;;
8046;SDS011;74083;42.516;23.358;2023-12-14T06:07:01;1.70;;;1.60;;
8046;SDS011;74083;42.516;23.358;2023-12-14T06:09:47;1.67;;;1.50;;
8046;SDS011;74083;42.516;23.358;2023-12-14T06:12:33;1.43;;;1.37;;
8046;SDS011;74083;42.516;23.358;2023-12-14T06:15:20;2.37;;;1.50;;
8046;SDS011;74083;42.516;23.358;2023-12-14T06:18:05;1.60;;;1.50;;
8046;SDS011;74083;42.516;23.358;2023-12-14T06:20:51;1.57;;;1.47;;
8046;SDS011;74083;42.516;23.358;2023-12-14T06:23:37;2.43;;;1.70;;
8046;SDS011;74083;42.516;23.358;2023-12-14T06:26:23;2.60;;;1.63;;
8046;SDS011;74083;42.516;23.358;2023-12-14T06:29:08;4.30;;;1.70;;
8046;SDS011;74083;42.516;23.358;2023-12-14T06:31:55;1.60;;;1.47;;
8046;SDS011;74083;42.516;23.358;2023-12-14T06:34:40;2.47;;;1.50;;
8046;SDS011;74083;42.516;23.358;2023-12-14T06:37:26;2.97;;;1.60;;
8046;SDS011;74083;42.516;23.358;2023-12-14T06:40:12;1.60;;;1.50;;
8046;SDS011;74083;42.516;23.358;2023-12-14T06:42:58;1.60;;;1.50;;
8046;SDS011;74083;42.516;23.358;2023-12-14T06:45:44;1.70;;;1.60;;
8046;SDS011;74083;42.516;23.358;2023-12-14T06:48:31;2.17;;;1.87;;
8046;SDS011;74083;42.516;23.358;2023-12-14T06:51:16;1.70;;;1.60;;
8046;SDS011;74083;42.516;23.358;2023-12-14T06:54:02;2.83;;;1.60;;
8046;SDS011;74083;42.516;23.358;2023-12-14T06:56:48;1.73;;;1.60;;
8046;SDS011;74083;42.516;23.358;2023-12-14T06:59:33;2.83;;;1.60;;
8046;SDS011;74083;42.516;23.358;2023-12-14T07:02:19;2.70;;;1.60;;
8046;SDS011;74083;42.516;23.358;2023-12-14T07:05:06;2.80;;;1.50;;
8046;SDS011;74083;42.516;23.358;2023-12-14T07:07:51;1.80;;;1.70;;
8046;SDS011;74083;42.516;23.358;2023-12-14T07:10:37;1.53;;;1.43;;
8046;SDS011;74083;42.516;23.358;2023-12-14T07:13:23;2.07;;;1.60;;
8046;SDS011;74083;42.516;23.358;2023-12-14T07:16:09;1.60;;;1.50;;
8046;SDS011;74083;42.516;23.358;2023-12-14T07:18:56;2.03;;;1.80;;
8046;SDS011;74083;42.516;23.358;2023-12-14T07:21:44;3.20;;;1.70;;
8046;SDS011;74083;42.516;23.358;2023-12-14T07:24:29;1.93;;;1.73;;
8046;SDS011;74083;42.516;23.358;2023-12-14T07:27:15;1.60;;;1.50;;
8046;SDS011;74083;42.516;23.358;2023-12-14T07:30:01;2.00;;;1.73;;
8046;SDS011;74083;42.516;23.358;2023-12-14T07:32:47;1.60;;;1.50;;
8046;SDS011;74083;42.516;23.358;2023-12-14T07:35:33;1.80;;;1.70;;
8046;SDS011;74083;42.516;23.358;2023-12-14T07:38:20;1.70;;;1.53;;
8046;SDS011;74083;42.516;23.358;2023-12-14T07:41:06;2.27;;;1.60;;
8046;SDS011;74083;42.516;23.358;2023-12-14T07:43:52;1.77;;;1.67;;
8046;SDS011;74083;42.516;23.358;2023-12-14T07:46:37;1.83;;;1.60;;
8046;SDS011;74083;42.516;23.358;2023-12-14T07:49:26;3.30;;;1.80;;
8046;SDS011;74083;42.516;23.358;2023-12-14T07:52:12;1.70;;;1.60;;
8046;SDS011;74083;42.516;23.358;2023-12-14T07:55:00;1.63;;;1.53;;
8046;SDS011;74083;42.516;23.358;2023-12-14T07:57:47;2.03;;;1.60;;
8046;SDS011;74083;42.516;23.358;2023-12-14T08:00:32;2.80;;;1.73;;
8046;SDS011;74083;42.516;23.358;2023-12-14T08:03:18;2.67;;;1.87;;
8046;SDS011;74083;42.516;23.358;2023-12-14T08:06:05;1.70;;;1.60;;
8046;SDS011;74083;42.516;23.358;2023-12-14T08:08:51;1.90;;;1.77;;
8046;SDS011;74083;42.516;23.358;2023-12-14T08:11:37;4.07;;;1.60;;
8046;SDS011;74083;42.516;23.358;2023-12-14T08:14:23;2.83;;;1.80;;
8046;SDS011;74083;42.516;23.358;2023-12-14T08:17:09;1.83;;;1.70;;
8046;SDS011;74083;42.516;23.358;2023-12-14T08:19:55;2.60;;;1.50;;
8046;SDS011;74083;42.516;23.358;2023-12-14T08:22:40;1.97;;;1.70;;
8046;SDS011;74083;42.516;23.358;2023-12-14T08:25:28;1.93;;;1.77;;
8046;SDS011;74083;42.516;23.358;2023-12-14T08:28:16;2.00;;;1.60;;
8046;SDS011;74083;42.516;23.358;2023-12-14T08:31:01;3.53;;;1.83;;
8046;SDS011;74083;42.516;23.358;2023-12-14T08:33:48;1.50;;;1.40;;
8046;SDS011;74083;42.516;23.358;2023-12-14T08:36:33;1.63;;;1.53;;
8046;SDS011;74083;42.516;23.358;2023-12-14T08:39:19;2.00;;;1.80;;
8046;SDS011;74083;42.516;23.358;2023-12-14T08:42:05;2.37;;;1.80;;
8046;SDS011;74083;42.516;23.358;2023-12-14T08:44:52;2.90;;;1.80;;
8046;SDS011;74083;42.516;23.358;2023-12-14T08:47:38;2.23;;;1.80;;
8046;SDS011;74083;42.516;23.358;2023-12-14T08:50:23;2.40;;;1.77;;
8046;SDS011;74083;42.516;23.358;2023-12-14T08:53:10;1.70;;;1.60;;
8046;SDS011;74083;42.516;23.358;2023-12-14T08:55:55;2.93;;;1.87;;
8046;SDS011;74083;42.516;23.358;2023-12-14T08:58:41;1.80;;;1.70;;
8046;SDS011;74083;42.516;23.358;2023-12-14T09:01:28;3.07;;;1.63;;
8046;SDS011;74083;42.516;23.358;2023-12-14T09:04:14;1.90;;;1.80;;
8046;SDS011;74083;42.516;23.358;2023-12-14T09:06:59;3.70;;;1.60;;
8046;SDS011;74083;42.516;23.358;2023-12-14T09:09:44;3.40;;;1.90;;
8046;SDS011;74083;42.516;23.358;2023-12-14T09:12:30;2.63;;;1.90;;
8046;SDS011;74083;42.516;23.358;2023-12-14T09:15:16;2.60;;;1.80;;
8046;SDS011;74083;42.516;23.358;2023-12-14T09:18:03;2.20;;;1.53;;
8046;SDS011;74083;42.516;23.358;2023-12-14T09:20:49;1.77;;;1.67;;
8046;SDS011;74083;42.516;23.358;2023-12-14T09:23:35;2.63;;;1.90;;
8046;SDS011;74083;42.516;23.358;2023-12-14T09:26:20;1.60;;;1.50;;
8046;SDS011;74083;42.516;23.358;2023-12-14T09:29:06;2.17;;;1.87;;
8046;SDS011;74083;42.516;23.358;2023-12-14T09:31:52;1.87;;;1.70;;
8046;SDS011;74083;42.516;23.358;2023-12-14T09:34:40;1.80;;;1.70;;
8046;SDS011;74083;42.516;23.358;2023-12-14T09:37:25;2.23;;;1.80;;
8046;SDS011;74083;42.516;23.358;2023-12-14T09:40:12;2.00;;;1.90;;
8046;SDS011;74083;42.516;23.358;2023-12-14T09:42:58;2.53;;;1.80;;
8046;SDS011;74083;42.516;23.358;2023-12-14T09:45:44;3.57;;;1.80;;
8046;SDS011;74083;42.516;23.358;2023-12-14T09:48:31;1.70;;;1.60;;
8046;SDS011;74083;42.516;23.358;2023-12-14T09:51:19;4.27;;;1.77;;
8046;SDS011;74083;42.516;23.358;2023-12-14T09:54:07;3.53;;;1.80;;
8046;SDS011;74083;42.516;23.358;2023-12-14T09:56:53;1.77;;;1.50;;
8046;SDS011;74083;42.516;23.358;2023-12-14T09:59:39;2.33;;;1.90;;
8046;SDS011;74083;42.516;23.358;2023-12-14T10:02:26;2.00;;;1.77;;
8046;SDS011;74083;42.516;23.358;2023-12-14T10:05:12;1.90;;;1.80;;
8046;SDS011;74083;42.516;23.358;2023-12-14T10:07:59;2.47;;;1.80;;
8046;SDS011;74083;42.516;23.358;2023-12-14T10:10:45;2.00;;;1.80;;
8046;SDS011;74083;42.516;23.358;2023-12-14T10:13:36;3.17;;;1.87;;
8046;SDS011;74083;42.516;23.358;2023-12-14T10:16:28;1.87;;;1.70;;
8046;SDS011;74083;42.516;23.358;2023-12-14T10:19:16;2.80;;;2.00;;
8046;SDS011;74083;42.516;23.358;2023-12-14T10:22:02;2.87;;;1.73;;
8046;SDS011;74083;42.516;23.358;2023-12-14T10:24:49;4.27;;;1.73;;
8046;SDS011;74083;42.516;23.358;2023-12-14T10:27:37;2.60;;;1.73;;
8046;SDS011;74083;42.516;23.358;2023-12-14T10:30:22;5.47;;;1.83;;
8046;SDS011;74083;42.516;23.358;2023-12-14T10:33:08;3.63;;;2.00;;
8046;SDS011;74083;42.516;23.358;2023-12-14T10:35:53;2.47;;;1.90;;
8046;SDS011;74083;42.516;23.358;2023-12-14T10:38:39;3.80;;;1.90;;
8046;SDS011;74083;42.516;23.358;2023-12-14T10:41:29;2.73;;;1.90;;
8046;SDS011;74083;42.516;23.358;2023-12-14T10:44:18;3.53;;;2.10;;
8046;SDS011;74083;42.516;23.358;2023-12-14T10:47:04;2.27;;;2.00;;
8046;SDS011;74083;42.516;23.358;2023-12-14T10:49:52;2.10;;;1.60;;
8046;SDS011;74083;42.516;23.358;2023-12-14T10:52:40;2.10;;;1.90;;
8046;SDS011;74083;42.516;23.358;2023-12-14T10:55:28;2.40;;;1.80;;
8046;SDS011;74083;42.516;23.358;2023-12-14T10:58:19;2.40;;;1.77;;
8046;SDS011;74083;42.516;23.358;2023-12-14T11:01:06;3.00;;;1.90;;
8046;SDS011;74083;42.516;23.358;2023-12-14T11:03:54;2.67;;;2.00;;
8046;SDS011;74083;42.516;23.358;2023-12-14T11:06:40;2.10;;;1.90;;
8046;SDS011;74083;42.516;23.358;2023-12-14T11:09:30;2.83;;;1.67;;
8046;SDS011;74083;42.516;23.358;2023-12-14T11:12:19;2.33;;;1.87;;
8046;SDS011;74083;42.516;23.358;2023-12-14T11:15:08;3.00;;;2.13;;
8046;SDS011;74083;42.516;23.358;2023-12-14T11:21:06;3.60;;;2.00;;
8046;SDS011;74083;42.516;23.358;2023-12-14T11:23:52;2.80;;;1.80;;
8046;SDS011;74083;42.516;23.358;2023-12-14T11:26:38;2.80;;;2.20;;
8046;SDS011;74083;42.516;23.358;2023-12-14T11:29:25;2.60;;;2.10;;
8046;SDS011;74083;42.516;23.358;2023-12-14T11:32:13;2.90;;;2.03;;
8046;SDS011;74083;42.516;23.358;2023-12-14T11:34:58;3.37;;;1.80;;
8046;SDS011;74083;42.516;23.358;2023-12-14T11:37:44;1.80;;;1.70;;
8046;SDS011;74083;42.516;23.358;2023-12-14T11:40:30;2.17;;;1.97;;
8046;SDS011;74083;42.516;23.358;2023-12-14T11:43:16;1.90;;;1.80;;
8046;SDS011;74083;42.516;23.358;2023-12-14T11:46:04;4.93;;;2.70;;
8046;SDS011;74083;42.516;23.358;2023-12-14T11:48:51;4.50;;;3.90;;
8046;SDS011;74083;42.516;23.358;2023-12-14T11:51:37;5.43;;;4.67;;
8046;SDS011;74083;42.516;23.358;2023-12-14T11:54:24;5.70;;;4.20;;
8046;SDS011;74083;42.516;23.358;2023-12-14T11:57:10;8.17;;;5.00;;
8046;SDS011;74083;42.516;23.358;2023-12-14T11:59:57;7.17;;;5.00;;
8046;SDS011;74083;42.516;23.358;2023-12-14T12:02:44;6.33;;;4.83;;
8046;SDS011;74083;42.516;23.358;2023-12-14T12:05:36;6.67;;;5.73;;
8046;SDS011;74083;42.516;23.358;2023-12-14T12:08:22;10.27;;;5.50;;
8046;SDS011;74083;42.516;23.358;2023-12-14T12:11:07;5.37;;;4.87;;
8046;SDS011;74083;42.516;23.358;2023-12-14T12:13:53;5.63;;;4.73;;
8046;SDS011;74083;42.516;23.358;2023-12-14T12:16:40;4.97;;;4.33;;
8046;SDS011;74083;42.516;23.358;2023-12-14T12:19:25;6.87;;;4.63;;
8046;SDS011;74083;42.516;23.358;2023-12-14T12:22:12;5.47;;;4.97;;
8046;SDS011;74083;42.516;23.358;2023-12-14T12:24:58;4.73;;;4.33;;
8046;SDS011;74083;42.516;23.358;2023-12-14T12:27:44;5.07;;;4.27;;
8046;SDS011;74083;42.516;23.358;2023-12-14T12:30:31;4.83;;;4.33;;
8046;SDS011;74083;42.516;23.358;2023-12-14T12:33:16;4.17;;;3.70;;
8046;SDS011;74083;42.516;23.358;2023-12-14T12:36:01;5.07;;;4.00;;
8046;SDS011;74083;42.516;23.358;2023-12-14T12:38:49;4.40;;;3.60;;
8046;SDS011;74083;42.516;23.358;2023-12-14T12:41:34;3.90;;;3.47;;
8046;SDS011;74083;42.516;23.358;2023-12-14T12:44:21;3.37;;;3.00;;
8046;SDS011;74083;42.516;23.358;2023-12-14T12:47:06;4.37;;;2.83;;
8046;SDS011;74083;42.516;23.358;2023-12-14T12:49:52;3.13;;;2.83;;
8046;SDS011;74083;42.516;23.358;2023-12-14T12:52:38;2.70;;;2.50;;
8046;SDS011;74083;42.516;23.358;2023-12-14T12:55:25;3.33;;;2.63;;
8046;SDS011;74083;42.516;23.358;2023-12-14T12:58:10;5.70;;;2.50;;
8046;SDS011;74083;42.516;23.358;2023-12-14T13:00:58;3.67;;;2.73;;
8046;SDS011;74083;42.516;23.358;2023-12-14T13:03:43;3.17;;;2.50;;
8046;SDS011;74083;42.516;23.358;2023-12-14T13:06:29;2.43;;;2.23;;
8046;SDS011;74083;42.516;23.358;2023-12-14T13:09:15;3.17;;;2.40;;
8046;SDS011;74083;42.516;23.358;2023-12-14T13:12:03;3.87;;;2.40;;
8046;SDS011;74083;42.516;23.358;2023-12-14T13:14:49;3.20;;;2.10;;
8046;SDS011;74083;42.516;23.358;2023-12-14T13:17:34;3.03;;;1.90;;
8046;SDS011;74083;42.516;23.358;2023-12-14T13:20:20;1.90;;;1.80;;
8046;SDS011;74083;42.516;23.358;2023-12-14T13:23:05;2.30;;;2.10;;
8046;SDS011;74083;42.516;23.358;2023-12-14T13:25:51;2.00;;;1.80;;
8046;SDS011;74083;42.516;23.358;2023-12-14T13:28:38;1.87;;;1.77;;
8046;SDS011;74083;42.516;23.358;2023-12-14T13:31:24;2.27;;;1.70;;
8046;SDS011;74083;42.516;23.358;2023-12-14T13:34:09;2.10;;;1.90;;
8046;SDS011;74083;42.516;23.358;2023-12-14T13:36:54;2.07;;;1.80;;
8046;SDS011;74083;42.516;23.358;2023-12-14T13:39:40;2.20;;;1.80;;
8046;SDS011;74083;42.516;23.358;2023-12-14T13:42:26;1.80;;;1.70;;
8046;SDS011;74083;42.516;23.358;2023-12-14T13:45:13;1.80;;;1.70;;
8046;SDS011;74083;42.516;23.358;2023-12-14T13:47:59;2.10;;;1.90;;
8046;SDS011;74083;42.516;23.358;2023-12-14T13:50:44;2.10;;;1.90;;
8046;SDS011;74083;42.516;23.358;2023-12-14T13:53:29;1.83;;;1.73;;
8046;SDS011;74083;42.516;23.358;2023-12-14T13:56:15;2.83;;;2.10;;
8046;SDS011;74083;42.516;23.358;2023-12-14T13:59:01;2.27;;;2.07;;
8046;SDS011;74083;42.516;23.358;2023-12-14T14:01:48;2.53;;;2.13;;
8046;SDS011;74083;42.516;23.358;2023-12-14T14:04:35;2.10;;;1.90;;
8046;SDS011;74083;42.516;23.358;2023-12-14T14:07:20;2.13;;;1.90;;
8046;SDS011;74083;42.516;23.358;2023-12-14T14:10:06;3.53;;;1.60;;
8046;SDS011;74083;42.516;23.358;2023-12-14T14:12:54;1.80;;;1.70;;
8046;SDS011;74083;42.516;23.358;2023-12-14T14:15:40;2.03;;;1.83;;
8046;SDS011;74083;42.516;23.358;2023-12-14T14:18:26;1.60;;;1.50;;
8046;SDS011;74083;42.516;23.358;2023-12-14T14:21:12;2.00;;;1.80;;
8046;SDS011;74083;42.516;23.358;2023-12-14T14:23:57;1.87;;;1.77;;
8046;SDS011;74083;42.516;23.358;2023-12-14T14:26:43;2.73;;;1.53;;
8046;SDS011;74083;42.516;23.358;2023-12-14T14:29:29;2.13;;;1.67;;
8046;SDS011;74083;42.516;23.358;2023-12-14T14:32:14;5.00;;;1.60;;
8046;SDS011;74083;42.516;23.358;2023-12-14T14:35:01;1.60;;;1.50;;
8046;SDS011;74083;42.516;23.358;2023-12-14T14:37:47;2.73;;;1.40;;
8046;SDS011;74083;42.516;23.358;2023-12-14T14:40:34;1.70;;;1.60;;
8046;SDS011;74083;42.516;23.358;2023-12-14T14:43:19;1.90;;;1.80;;
8046;SDS011;74083;42.516;23.358;2023-12-14T14:46:06;1.70;;;1.60;;
8046;SDS011;74083;42.516;23.358;2023-12-14T14:48:52;2.93;;;1.57;;
8046;SDS011;74083;42.516;23.358;2023-12-14T14:51:39;2.13;;;1.80;;
8046;SDS011;74083;42.516;23.358;2023-12-14T14:54:25;1.80;;;1.70;;
8046;SDS011;74083;42.516;23.358;2023-12-14T14:57:11;2.90;;;2.60;;
8046;SDS011;74083;42.516;23.358;2023-12-14T14:59:56;3.83;;;3.23;;
8046;SDS011;74083;42.516;23.358;2023-12-14T15:02:43;5.40;;;4.73;;
8046;SDS011;74083;42.516;23.358;2023-12-14T15:05:28;3.10;;;2.80;;
8046;SDS011;74083;42.516;23.358;2023-12-14T15:08:16;2.70;;;2.50;;
8046;SDS011;74083;42.516;23.358;2023-12-14T15:11:02;3.83;;;2.60;;
8046;SDS011;74083;42.516;23.358;2023-12-14T15:13:50;3.43;;;2.77;;
8046;SDS011;74083;42.516;23.358;2023-12-14T15:16:35;3.60;;;2.93;;
8046;SDS011;74083;42.516;23.358;2023-12-14T15:19:21;2.90;;;2.60;;
8046;SDS011;74083;42.516;23.358;2023-12-14T15:22:07;3.67;;;3.20;;
8046;SDS011;74083;42.516;23.358;2023-12-14T15:24:54;4.63;;;3.63;;
8046;SDS011;74083;42.516;23.358;2023-12-14T15:27:39;4.90;;;4.20;;
8046;SDS011;74083;42.516;23.358;2023-12-14T15:30:25;5.90;;;4.43;;
8046;SDS011;74083;42.516;23.358;2023-12-14T15:33:11;5.33;;;4.40;;
8046;SDS011;74083;42.516;23.358;2023-12-14T15:35:57;6.13;;;4.80;;
8046;SDS011;74083;42.516;23.358;2023-12-14T15:38:43;5.27;;;4.47;;
8046;SDS011;74083;42.516;23.358;2023-12-14T15:41:31;6.47;;;4.83;;
8046;SDS011;74083;42.516;23.358;2023-12-14T15:44:17;5.43;;;4.50;;
8046;SDS011;74083;42.516;23.358;2023-12-14T15:47:04;5.57;;;4.13;;
8046;SDS011;74083;42.516;23.358;2023-12-14T15:49:50;6.27;;;4.50;;
8046;SDS011;74083;42.516;23.358;2023-12-14T15:52:35;5.90;;;5.00;;
8046;SDS011;74083;42.516;23.358;2023-12-14T15:55:20;6.67;;;5.30;;
8046;SDS011;74083;42.516;23.358;2023-12-14T15:58:09;5.70;;;4.83;;
8046;SDS011;74083;42.516;23.358;2023-12-14T16:00:55;5.87;;;4.47;;
8046;SDS011;74083;42.516;23.358;2023-12-14T16:03:41;5.57;;;4.67;;
8046;SDS011;74083;42.516;23.358;2023-12-14T16:06:28;5.87;;;4.30;;
8046;SDS011;74083;42.516;23.358;2023-12-14T16:09:13;5.00;;;3.70;;
8046;SDS011;74083;42.516;23.358;2023-12-14T16:12:00;6.23;;;4.33;;
8046;SDS011;74083;42.516;23.358;2023-12-14T16:14:49;5.10;;;4.57;;
8046;SDS011;74083;42.516;23.358;2023-12-14T16:17:35;4.90;;;4.20;;
8046;SDS011;74083;42.516;23.358;2023-12-14T16:20:20;5.73;;;4.80;;
8046;SDS011;74083;42.516;23.358;2023-12-14T16:23:08;5.73;;;4.60;;
8046;SDS011;74083;42.516;23.358;2023-12-14T16:25:53;4.73;;;4.07;;
8046;SDS011;74083;42.516;23.358;2023-12-14T16:28:41;4.63;;;4.13;;
8046;SDS011;74083;42.516;23.358;2023-12-14T16:31:29;5.07;;;4.27;;
8046;SDS011;74083;42.516;23.358;2023-12-14T16:34:15;5.40;;;4.43;;
8046;SDS011;74083;42.516;23.358;2023-12-14T16:37:01;4.50;;;4.10;;
8046;SDS011;74083;42.516;23.358;2023-12-14T16:39:47;5.03;;;4.17;;
8046;SDS011;74083;42.516;23.358;2023-12-14T16:42:33;5.20;;;4.17;;
8046;SDS011;74083;42.516;23.358;2023-12-14T16:45:18;4.80;;;4.03;;